Time;durP1;ratioP1;P1;durP2;ratioP2;P2;SDS_P1;SDS_P2;PMS_P1;PMS_P2;Temp;Humidity;BMP_temperature;BMP_pressure;BME280_temperature;BME280_humidity;BME280_pressure;Samples;Min_cycle;Max_cycle;Signal;HPM_P1;HPM_P2
2022/03/19 00:00:39;;;;;;;14.00;2.90;;;7.60;97.50;;;;;;5031207;28;20045;-87
2022/03/19 00:03:06;;;;;;;15.10;3.45;;;7.50;97.50;;;;;;5031680;28;20104;-87
2022/03/19 00:05:32;;;;;;;12.68;3.22;;;7.50;97.60;;;;;;5031861;28;20037;-87
2022/03/19 00:07:58;;;;;;;15.20;3.00;;;7.50;97.80;;;;;;5031546;28;20475;-87
2022/03/19 00:10:24;;;;;;;12.55;2.88;;;7.50;97.70;;;;;;5031021;28;20041;-87
2022/03/19 00:12:50;;;;;;;15.88;3.17;;;7.40;97.70;;;;;;5031605;28;20029;-87
2022/03/19 00:15:19;;;;;;;13.18;3.63;;;7.40;97.80;;;;;;5031367;28;20572;-87
2022/03/19 00:17:45;;;;;;;13.35;2.60;;;7.40;97.80;;;;;;5031244;28;20090;-87
2022/03/19 00:20:11;;;;;;;15.75;2.88;;;7.30;97.90;;;;;;5030955;28;20453;-86
2022/03/19 00:22:38;;;;;;;14.40;3.25;;;7.30;98.00;;;;;;5014624;28;20048;-87
2022/03/19 00:25:04;;;;;;;15.48;3.13;;;7.20;98.20;;;;;;5031534;28;20044;-86
2022/03/19 00:27:29;;;;;;;13.25;3.00;;;7.20;98.10;;;;;;5030837;28;20079;-86
2022/03/19 00:29:55;;;;;;;13.40;3.03;;;7.20;98.30;;;;;;5014440;28;20111;-87
2022/03/19 00:32:20;;;;;;;14.23;3.28;;;7.20;98.40;;;;;;5030989;28;20041;-87
2022/03/19 00:34:46;;;;;;;14.60;2.80;;;7.20;98.40;;;;;;5031074;28;20055;-87
2022/03/19 00:37:12;;;;;;;14.30;3.22;;;7.10;98.40;;;;;;5030995;28;20044;-87
2022/03/19 00:39:37;;;;;;;15.57;3.28;;;7.10;98.60;;;;;;5030542;28;20171;-87
2022/03/19 00:42:03;;;;;;;14.10;3.33;;;7.10;98.70;;;;;;5030622;28;20037;-87
2022/03/19 00:44:29;;;;;;;14.63;2.92;;;7.10;98.70;;;;;;5030943;28;20120;-87
2022/03/19 00:46:54;;;;;;;13.90;3.53;;;7.10;98.80;;;;;;5030800;28;20504;-87
2022/03/19 00:49:20;;;;;;;14.15;3.17;;;7.10;98.90;;;;;;5030721;28;20037;-87
2022/03/19 00:51:45;;;;;;;12.88;2.83;;;7.10;98.90;;;;;;5031432;28;20037;-87
2022/03/19 00:54:12;;;;;;;14.57;3.17;;;7.10;99.00;;;;;;5014306;28;20076;-87
2022/03/19 00:56:38;;;;;;;12.13;3.38;;;7.10;99.10;;;;;;5013929;28;20505;-87
2022/03/19 00:59:04;;;;;;;15.73;3.65;;;7.00;99.20;;;;;;5030461;28;20045;-87
2022/03/19 01:01:30;;;;;;;11.50;2.88;;;7.00;99.20;;;;;;5030361;28;20061;-86
2022/03/19 01:03:55;;;;;;;16.10;3.83;;;6.90;99.20;;;;;;5030636;28;20040;-87
2022/03/19 01:06:21;;;;;;;12.30;3.25;;;6.90;99.30;;;;;;5030466;28;20441;-86
2022/03/19 01:08:47;;;;;;;12.95;2.95;;;6.90;99.40;;;;;;5014295;28;20038;-87
2022/03/19 01:11:13;;;;;;;14.68;3.53;;;6.90;99.50;;;;;;5030048;28;20780;-86
2022/03/19 01:13:38;;;;;;;14.13;4.13;;;6.80;99.60;;;;;;5030665;28;20048;-87
2022/03/19 01:16:04;;;;;;;15.13;3.30;;;6.80;99.70;;;;;;5030439;28;20491;-87
2022/03/19 01:18:30;;;;;;;11.77;3.05;;;6.80;99.70;;;;;;5030746;28;20128;-87
2022/03/19 01:20:56;;;;;;;13.80;3.08;;;6.80;99.80;;;;;;5035575;28;20085;-87
2022/03/19 01:23:22;;;;;;;15.30;3.47;;;6.70;99.90;;;;;;5044438;28;20056;-87
2022/03/19 01:25:48;;;;;;;13.13;3.53;;;6.70;99.90;;;;;;5040226;28;20105;-87
2022/03/19 01:28:13;;;;;;;18.45;3.53;;;6.70;99.90;;;;;;5047384;28;20080;-86
2022/03/19 01:30:39;;;;;;;14.55;3.53;;;6.70;99.90;;;;;;5038766;28;20045;-87
2022/03/19 01:33:04;;;;;;;11.18;3.17;;;6.70;99.90;;;;;;5033659;28;20037;-85
2022/03/19 01:35:30;;;;;;;14.88;3.00;;;6.70;99.90;;;;;;5038181;28;20048;-86
2022/03/19 01:37:56;;;;;;;11.98;3.03;;;6.60;99.90;;;;;;5050621;28;20044;-87
2022/03/19 01:40:22;;;;;;;13.00;2.83;;;6.60;99.90;;;;;;5050034;28;20124;-86
2022/03/19 01:42:50;;;;;;;17.75;3.42;;;6.60;99.90;;;;;;5050671;28;20129;-87
2022/03/19 01:45:22;;;;;;;14.13;3.20;;;6.60;99.90;;;;;;5033444;28;20041;-87
2022/03/19 01:47:48;;;;;;;15.80;2.88;;;6.60;99.90;;;;;;5049863;28;20120;-87
2022/03/19 01:50:15;;;;;;;12.23;2.80;;;6.50;99.90;;;;;;5032919;28;20037;-87
2022/03/19 01:52:41;;;;;;;14.10;3.40;;;6.50;99.90;;;;;;5051032;28;20041;-87
2022/03/19 01:55:08;;;;;;;10.43;2.88;;;6.50;99.90;;;;;;5054164;28;20404;-87
2022/03/19 01:57:37;;;;;;;15.90;3.35;;;6.50;99.90;;;;;;5053514;28;20083;-86
2022/03/19 02:00:07;;;;;;;11.98;3.33;;;6.50;99.90;;;;;;5037154;28;20476;-87
2022/03/19 02:02:34;;;;;;;15.45;3.78;;;6.50;99.90;;;;;;5053828;28;20124;-87
2022/03/19 02:05:03;;;;;;;14.65;3.67;;;6.50;99.90;;;;;;5037372;28;20393;-87
2022/03/19 02:07:29;;;;;;;16.38;4.13;;;6.50;99.90;;;;;;5037013;28;20448;-87
2022/03/19 02:09:58;;;;;;;15.65;4.10;;;6.40;99.90;;;;;;5053304;28;20409;-87
2022/03/19 02:12:24;;;;;;;17.10;3.83;;;6.40;99.90;;;;;;5053520;28;20570;-87
2022/03/19 02:14:50;;;;;;;14.63;3.60;;;6.40;99.90;;;;;;5053427;28;20041;-87
2022/03/19 02:17:16;;;;;;;13.13;3.13;;;6.40;99.90;;;;;;5053676;28;20033;-86
2022/03/19 02:19:52;;;;;;;11.73;3.67;;;6.40;99.90;;;;;;5053163;28;20405;-87
2022/03/19 02:22:19;;;;;;;15.75;3.53;;;6.30;99.90;;;;;;5053425;28;20486;-87
2022/03/19 02:27:31;;;;;;;15.02;4.00;;;6.30;99.90;;;;;;5053291;28;20564;-86
2022/03/19 02:29:57;;;;;;;13.20;3.60;;;6.30;99.90;;;;;;5052966;28;20510;-86
2022/03/19 02:32:23;;;;;;;11.98;3.88;;;6.30;99.90;;;;;;5053007;28;20056;-87
2022/03/19 02:34:49;;;;;;;12.15;4.05;;;6.30;99.90;;;;;;5036585;28;20040;-87
2022/03/19 02:37:14;;;;;;;14.82;3.88;;;6.30;99.90;;;;;;5053044;28;20059;-86
2022/03/19 02:39:40;;;;;;;14.70;3.97;;;6.30;99.90;;;;;;5052674;28;20128;-87
2022/03/19 02:42:07;;;;;;;13.13;3.85;;;6.30;99.90;;;;;;5053040;28;20037;-86
2022/03/19 02:44:33;;;;;;;14.02;4.32;;;6.30;99.90;;;;;;5036613;28;20041;-86
2022/03/19 02:47:02;;;;;;;14.98;4.13;;;6.30;99.90;;;;;;5052777;28;20037;-86
2022/03/19 02:49:27;;;;;;;14.07;3.80;;;6.30;99.90;;;;;;5035983;28;20119;-86
2022/03/19 02:51:55;;;;;;;15.18;4.40;;;6.30;99.90;;;;;;5052622;28;20119;-87
2022/03/19 02:54:23;;;;;;;17.52;4.50;;;6.30;99.90;;;;;;5053018;28;20045;-87
2022/03/19 02:56:49;;;;;;;17.67;4.50;;;6.30;99.90;;;;;;5052798;28;20063;-87
2022/03/19 02:59:20;;;;;;;18.20;5.13;;;6.30;99.90;;;;;;5052502;28;20159;-87
2022/03/19 03:01:51;;;;;;;12.27;4.57;;;6.30;99.90;;;;;;5052242;28;20033;-86
2022/03/19 03:04:16;;;;;;;15.70;4.10;;;6.30;99.90;;;;;;5035963;28;20032;-87
2022/03/19 03:06:44;;;;;;;15.15;4.07;;;6.20;99.90;;;;;;5035994;28;20041;-86
2022/03/19 03:09:10;;;;;;;15.50;4.28;;;6.20;99.90;;;;;;5036011;28;20502;-87
2022/03/19 03:11:37;;;;;;;18.92;4.60;;;6.20;99.90;;;;;;5052023;28;20059;-87
2022/03/19 03:14:08;;;;;;;12.57;3.83;;;6.20;99.90;;;;;;5052356;28;20041;-87
2022/03/19 03:16:34;;;;;;;13.50;4.68;;;6.20;99.90;;;;;;5035896;28;20452;-86
2022/03/19 03:19:09;;;;;;;16.75;4.53;;;6.20;99.90;;;;;;5052464;28;20045;-87
2022/03/19 03:21:35;;;;;;;18.17;4.97;;;6.20;99.90;;;;;;5051646;28;20052;-86
2022/03/19 03:24:02;;;;;;;13.80;4.15;;;6.20;99.90;;;;;;5052267;28;20406;-87
2022/03/19 03:26:28;;;;;;;14.57;4.40;;;6.10;99.90;;;;;;5052160;28;20045;-86
2022/03/19 03:28:54;;;;;;;14.25;4.15;;;6.10;99.90;;;;;;5035494;28;20099;-86
2022/03/19 03:31:20;;;;;;;16.42;4.47;;;6.10;99.90;;;;;;5051785;28;20049;-86
2022/03/19 03:33:46;;;;;;;13.68;4.15;;;6.10;99.90;;;;;;5051921;28;20086;-86
2022/03/19 03:36:12;;;;;;;16.63;4.53;;;6.10;99.90;;;;;;5052037;28;20032;-86
2022/03/19 03:38:37;;;;;;;15.77;4.18;;;6.10;99.90;;;;;;5052123;28;20163;-86
2022/03/19 03:41:03;;;;;;;18.58;4.57;;;6.10;99.90;;;;;;5046176;28;20512;-86
2022/03/19 03:43:29;;;;;;;12.45;3.97;;;6.10;99.90;;;;;;5015696;28;20043;-87
2022/03/19 03:45:55;;;;;;;17.08;4.00;;;6.10;99.90;;;;;;5015509;28;20048;-86
2022/03/19 03:48:21;;;;;;;11.25;4.53;;;6.10;99.90;;;;;;5031849;28;20172;-86
2022/03/19 03:50:51;;;;;;;13.80;4.63;;;6.10;99.90;;;;;;5031297;28;20120;-86
2022/03/19 03:53:17;;;;;;;15.82;4.22;;;6.00;99.90;;;;;;5031844;28;20520;-86
2022/03/19 03:55:44;;;;;;;13.15;4.35;;;6.00;99.90;;;;;;5031492;28;20100;-87
2022/03/19 03:58:11;;;;;;;14.68;3.97;;;6.00;99.90;;;;;;5031546;28;20048;-87
2022/03/19 04:00:37;;;;;;;16.95;4.50;;;6.00;99.90;;;;;;5031275;28;20052;-86
2022/03/19 04:03:06;;;;;;;15.18;4.40;;;6.00;99.90;;;;;;5031814;28;20437;-86
2022/03/19 04:05:33;;;;;;;13.32;5.25;;;6.00;99.90;;;;;;5031532;28;20033;-86
2022/03/19 04:08:00;;;;;;;12.68;3.78;;;6.00;99.90;;;;;;5015197;28;20521;-86
2022/03/19 04:10:26;;;;;;;17.88;4.50;;;5.90;99.90;;;;;;5031258;28;20099;-86
2022/03/19 04:12:52;;;;;;;14.00;3.90;;;5.90;99.90;;;;;;5014880;28;20042;-86
2022/03/19 04:15:18;;;;;;;16.75;4.90;;;5.90;99.90;;;;;;5030945;28;20042;-86
2022/03/19 04:17:44;;;;;;;13.40;4.03;;;5.80;99.90;;;;;;5031170;28;20406;-86
2022/03/19 04:20:11;;;;;;;15.35;4.30;;;5.90;99.90;;;;;;5030885;28;20109;-86
2022/03/19 04:22:39;;;;;;;12.65;3.63;;;5.80;99.90;;;;;;5014840;28;20482;-86
2022/03/19 04:25:13;;;;;;;15.90;3.70;;;5.80;99.90;;;;;;5031046;28;20037;-86
2022/03/19 04:27:40;;;;;;;17.90;4.28;;;5.80;99.90;;;;;;5031046;28;20037;-86
2022/03/19 04:30:07;;;;;;;13.65;3.90;;;5.80;99.90;;;;;;5014361;28;20045;-86
2022/03/19 04:32:45;;;;;;;13.88;4.05;;;5.80;99.90;;;;;;5031287;28;20044;-86
2022/03/19 04:38:03;;;;;;;18.65;4.15;;;5.70;99.90;;;;;;5030922;28;20041;-86
2022/03/19 04:40:29;;;;;;;13.73;3.53;;;5.70;99.90;;;;;;5030766;28;20399;-86
2022/03/19 04:42:55;;;;;;;14.55;3.95;;;5.60;99.90;;;;;;5031284;28;20375;-86
2022/03/19 04:45:21;;;;;;;15.85;3.60;;;5.60;99.90;;;;;;5030819;28;20526;-86
2022/03/19 04:47:46;;;;;;;12.60;4.07;;;5.60;99.90;;;;;;5030564;28;20056;-86
2022/03/19 04:50:12;;;;;;;13.43;4.05;;;5.50;99.90;;;;;;5030220;28;20048;-86
2022/03/19 04:52:39;;;;;;;16.08;4.30;;;5.50;99.90;;;;;;5030768;28;20046;-86
2022/03/19 04:55:06;;;;;;;12.68;3.83;;;5.50;99.90;;;;;;5030832;28;20038;-86
2022/03/19 04:57:32;;;;;;;13.52;4.55;;;5.50;99.90;;;;;;5030488;28;20042;-86
2022/03/19 04:59:58;;;;;;;10.90;3.30;;;5.50;99.90;;;;;;5030354;28;20128;-86
2022/03/19 05:02:24;;;;;;;13.15;3.72;;;5.50;99.90;;;;;;5030709;28;20387;-86
2022/03/19 05:04:54;;;;;;;16.25;4.60;;;5.40;99.90;;;;;;5030543;28;20509;-86
2022/03/19 05:07:21;;;;;;;17.67;4.43;;;5.50;99.90;;;;;;5030605;28;20044;-86
2022/03/19 05:12:32;;;;;;;11.43;3.78;;;5.40;99.90;;;;;;5030455;28;20053;-87
2022/03/19 05:14:58;;;;;;;18.30;3.90;;;5.40;99.90;;;;;;5030448;28;20037;-86
2022/03/19 05:17:24;;;;;;;12.68;2.90;;;5.40;99.90;;;;;;5013947;28;20457;-86
2022/03/19 05:19:49;;;;;;;15.68;3.90;;;5.40;99.90;;;;;;5030124;28;20132;-86
2022/03/19 05:22:15;;;;;;;12.90;3.53;;;5.40;99.90;;;;;;5030588;28;20498;-86
2022/03/19 05:24:41;;;;;;;15.18;4.05;;;5.40;99.90;;;;;;5030381;28;20037;-86
2022/03/19 05:27:08;;;;;;;12.35;3.38;;;5.40;99.90;;;;;;5030651;28;20045;-86
2022/03/19 05:29:34;;;;;;;15.48;3.67;;;5.40;99.90;;;;;;5033855;28;20510;-87
2022/03/19 05:32:00;;;;;;;13.35;3.42;;;5.40;99.90;;;;;;5034662;28;20067;-86
2022/03/19 05:34:31;;;;;;;14.27;3.35;;;5.40;99.90;;;;;;5034425;28;20502;-87
2022/03/19 05:37:01;;;;;;;14.20;3.38;;;5.40;99.90;;;;;;5017062;28;20038;-86
2022/03/19 05:39:28;;;;;;;13.43;3.05;;;5.40;99.90;;;;;;5034653;28;20056;-86
2022/03/19 05:41:54;;;;;;;13.02;3.40;;;5.50;99.90;;;;;;5017526;28;20038;-86
2022/03/19 05:44:20;;;;;;;15.60;3.28;;;5.50;99.90;;;;;;5034471;28;20401;-87
2022/03/19 05:46:46;;;;;;;13.27;4.00;;;5.50;99.90;;;;;;5034162;28;20037;-86
2022/03/19 05:49:12;;;;;;;14.40;3.28;;;5.50;99.90;;;;;;5017663;28;20050;-86
2022/03/19 05:51:37;;;;;;;15.48;3.83;;;5.50;99.90;;;;;;5033812;28;20075;-86
2022/03/19 05:54:03;;;;;;;11.88;3.60;;;5.50;99.90;;;;;;5033970;28;20056;-86
2022/03/19 05:56:29;;;;;;;15.43;3.83;;;5.50;99.90;;;;;;5034049;28;20406;-86
2022/03/19 05:58:55;;;;;;;12.18;4.10;;;5.50;99.90;;;;;;5034001;28;20053;-86
2022/03/19 06:01:27;;;;;;;11.77;3.38;;;5.50;99.90;;;;;;5033724;28;20029;-86
2022/03/19 06:03:53;;;;;;;11.82;3.30;;;5.50;99.90;;;;;;5033927;28;20040;-86
2022/03/19 06:06:19;;;;;;;13.63;3.58;;;5.60;99.90;;;;;;5032135;28;20041;-86
2022/03/19 06:08:44;;;;;;;13.40;3.42;;;5.60;99.90;;;;;;5033674;28;20064;-86
2022/03/19 06:11:10;;;;;;;14.88;3.42;;;5.60;99.90;;;;;;5033138;28;20045;-86
2022/03/19 06:13:35;;;;;;;15.30;4.30;;;5.60;99.90;;;;;;5033792;28;20446;-86
2022/03/19 06:16:02;;;;;;;15.50;4.38;;;5.60;99.90;;;;;;5033374;28;20491;-86
2022/03/19 06:18:28;;;;;;;14.27;3.72;;;5.60;99.90;;;;;;5017140;28;20078;-86
2022/03/19 06:20:54;;;;;;;11.77;3.53;;;5.70;99.90;;;;;;5033138;28;20041;-86
2022/03/19 06:23:19;;;;;;;11.32;3.28;;;5.70;99.90;;;;;;5035000;28;20110;-86
2022/03/19 06:25:45;;;;;;;12.93;3.90;;;5.70;99.90;;;;;;5042750;28;20506;-86
2022/03/19 06:28:10;;;;;;;17.33;4.57;;;5.80;99.90;;;;;;5035044;28;20057;-86
2022/03/19 06:30:39;;;;;;;12.30;3.55;;;5.80;99.90;;;;;;5034369;28;20041;-87
2022/03/19 06:33:05;;;;;;;14.32;4.30;;;5.80;99.90;;;;;;5034310;28;20091;-87
2022/03/19 06:38:16;;;;;;;13.25;3.63;;;5.80;99.90;;;;;;5032608;28;20056;-87
2022/03/19 06:40:42;;;;;;;17.17;3.72;;;5.90;99.90;;;;;;5032652;28;20041;-86
2022/03/19 06:43:08;;;;;;;15.75;3.83;;;5.90;99.90;;;;;;5033343;28;20044;-86
2022/03/19 06:45:33;;;;;;;15.60;4.22;;;5.90;99.90;;;;;;5032890;28;20506;-86
2022/03/19 06:47:59;;;;;;;16.33;3.97;;;6.00;99.90;;;;;;5033183;28;20469;-86
2022/03/19 06:50:25;;;;;;;15.23;4.13;;;6.00;99.90;;;;;;5032421;28;20096;-86
2022/03/19 06:52:50;;;;;;;12.57;3.50;;;6.00;99.90;;;;;;5016060;28;20096;-87
2022/03/19 06:55:16;;;;;;;13.70;3.90;;;6.00;99.90;;;;;;5016621;28;20041;-86
2022/03/19 06:57:41;;;;;;;15.60;3.70;;;6.00;99.90;;;;;;5032606;28;20033;-86
2022/03/19 07:00:07;;;;;;;15.73;4.20;;;6.10;99.90;;;;;;5015956;28;20509;-86
2022/03/19 07:02:33;;;;;;;16.92;4.60;;;6.20;99.90;;;;;;5032651;28;20039;-87
2022/03/19 07:04:58;;;;;;;16.45;4.50;;;6.20;99.90;;;;;;5016189;28;20041;-87
2022/03/19 07:07:24;;;;;;;16.00;3.97;;;6.30;99.90;;;;;;5015939;28;20046;-87
2022/03/19 07:09:51;;;;;;;14.90;3.83;;;6.30;99.90;;;;;;5032406;28;20037;-87
2022/03/19 07:12:16;;;;;;;16.02;3.63;;;6.40;99.90;;;;;;5032483;28;20124;-87
2022/03/19 07:14:42;;;;;;;12.80;3.42;;;6.50;99.90;;;;;;5032320;28;20124;-88
2022/03/19 07:17:08;;;;;;;15.80;3.97;;;6.50;99.90;;;;;;5031899;28;20044;-87
2022/03/19 07:19:34;;;;;;;13.05;3.88;;;6.60;99.90;;;;;;5032305;28;20060;-86
2022/03/19 07:21:59;;;;;;;14.25;4.15;;;6.70;99.90;;;;;;5015922;28;20041;-86
2022/03/19 07:24:25;;;;;;;17.35;4.63;;;6.80;99.90;;;;;;5015797;28;20553;-87
2022/03/19 07:26:50;;;;;;;20.15;4.65;;;6.80;99.90;;;;;;5032144;28;20438;-87
2022/03/19 07:29:19;;;;;;;15.25;4.07;;;6.90;99.90;;;;;;5032161;28;20498;-86
2022/03/19 07:31:45;;;;;;;14.60;4.28;;;7.00;99.90;;;;;;5032071;28;20049;-87
2022/03/19 07:34:10;;;;;;;14.10;3.88;;;7.00;99.90;;;;;;5014242;28;20541;-87
2022/03/19 07:36:36;;;;;;;15.25;4.68;;;7.10;99.90;;;;;;5031687;28;20037;-87
2022/03/19 07:39:02;;;;;;;15.95;3.90;;;7.20;99.90;;;;;;5031989;28;20120;-87
2022/03/19 07:41:46;;;;;;;20.27;4.55;;;7.20;99.90;;;;;;5031632;28;20037;-87
2022/03/19 07:44:11;;;;;;;10.90;4.38;;;7.30;99.90;;;;;;5031969;28;20033;-86
2022/03/19 07:46:41;;;;;;;14.52;3.97;;;7.40;99.90;;;;;;5031453;28;20095;-87
2022/03/19 07:49:07;;;;;;;16.05;4.45;;;7.40;99.90;;;;;;5031940;28;20042;-87
2022/03/19 07:51:33;;;;;;;16.67;4.07;;;7.50;99.90;;;;;;5030500;28;20482;-87
2022/03/19 07:53:58;;;;;;;15.90;4.97;;;7.60;99.90;;;;;;5015477;28;20041;-87
2022/03/19 07:56:24;;;;;;;13.60;4.32;;;7.70;99.90;;;;;;5015145;28;20037;-87
2022/03/19 07:58:50;;;;;;;17.20;4.13;;;7.70;99.90;;;;;;5031614;28;20486;-87
2022/03/19 08:01:17;;;;;;;17.50;4.38;;;7.80;99.90;;;;;;5031249;28;20037;-87
2022/03/19 08:03:44;;;;;;;14.60;4.03;;;7.90;99.90;;;;;;5031398;28;20033;-87
2022/03/19 08:06:10;;;;;;;15.25;4.07;;;8.00;99.90;;;;;;5031808;28;20084;-87
2022/03/19 08:08:37;;;;;;;15.00;4.57;;;8.10;99.90;;;;;;5031442;28;20506;-87
2022/03/19 08:11:03;;;;;;;18.08;4.43;;;8.20;99.90;;;;;;5031311;28;20041;-87
2022/03/19 08:13:29;;;;;;;12.98;3.72;;;8.20;99.90;;;;;;5031274;28;20041;-87
2022/03/19 08:15:55;;;;;;;14.98;4.03;;;8.30;99.90;;;;;;5030850;28;20197;-87
2022/03/19 08:18:21;;;;;;;16.48;4.25;;;8.40;99.40;;;;;;5031473;28;20041;-87
2022/03/19 08:20:47;;;;;;;12.98;3.75;;;8.50;99.10;;;;;;5014174;28;20556;-87
2022/03/19 08:23:15;;;;;;;15.80;4.05;;;8.60;98.80;;;;;;5032773;28;20371;-87
2022/03/19 08:25:41;;;;;;;13.90;3.58;;;8.70;98.60;;;;;;5031445;28;20120;-87
2022/03/19 08:28:07;;;;;;;21.90;3.83;;;8.80;98.10;;;;;;5031151;28;20073;-87
2022/03/19 08:30:33;;;;;;;16.40;4.03;;;8.90;97.90;;;;;;5030785;28;20091;-87
2022/03/19 08:32:59;;;;;;;14.77;3.50;;;8.90;97.40;;;;;;5030822;28;20038;-87
2022/03/19 08:35:24;;;;;;;14.65;3.42;;;9.00;97.00;;;;;;5031291;28;20132;-87
2022/03/19 08:40:15;;;;;;;12.30;3.67;;;9.10;97.00;;;;;;5030680;28;20503;-87
2022/03/19 08:40:39;;;;;;;14.60;3.95;;;9.20;96.90;;;;;;5030420;28;20045;-87
2022/03/19 08:43:05;;;;;;;12.52;2.92;;;9.30;96.60;;;;;;5030766;28;20037;-87
2022/03/19 08:45:31;;;;;;;14.82;3.80;;;9.40;96.40;;;;;;5030737;28;20046;-87
2022/03/19 08:47:56;;;;;;;13.32;3.88;;;9.50;96.40;;;;;;5014413;28;20413;-87
2022/03/19 08:50:24;;;;;;;17.17;3.97;;;9.60;95.50;;;;;;5013790;28;20083;-87
2022/03/19 08:52:49;;;;;;;14.40;3.70;;;9.70;94.70;;;;;;5030781;28;20379;-88
2022/03/19 08:55:15;;;;;;;15.48;3.35;;;9.80;94.30;;;;;;5030878;28;20088;-88
2022/03/19 08:57:40;;;;;;;13.70;3.15;;;9.90;94.20;;;;;;5030693;28;20487;-88
2022/03/19 09:00:07;;;;;;;14.32;3.63;;;10.00;93.60;;;;;;5013863;28;20099;-88
2022/03/19 09:02:34;;;;;;;14.85;4.03;;;10.00;93.10;;;;;;5030270;28;20091;-88
2022/03/19 09:05:00;;;;;;;13.10;3.38;;;10.20;92.70;;;;;;5030892;28;20042;-88
2022/03/19 09:07:25;;;;;;;11.88;2.88;;;10.20;93.20;;;;;;5030638;28;20042;-88
2022/03/19 09:09:54;;;;;;;15.20;4.03;;;10.30;92.40;;;;;;5013728;28;20099;-88
2022/03/19 09:12:22;;;;;;;12.10;3.42;;;10.50;91.30;;;;;;5030357;28;20052;-88
2022/03/19 09:14:47;;;;;;;13.25;3.50;;;10.60;91.00;;;;;;5014127;28;20045;-88
2022/03/19 09:17:13;;;;;;;12.27;3.15;;;10.70;90.40;;;;;;5030543;28;20486;-88
2022/03/19 09:19:39;;;;;;;13.85;3.35;;;10.70;90.20;;;;;;5029915;28;20041;-88
2022/03/19 09:22:05;;;;;;;13.52;3.08;;;10.80;89.90;;;;;;5030546;28;20501;-87
2022/03/19 09:24:30;;;;;;;9.93;2.97;;;11.00;89.70;;;;;;5013994;28;20095;-87
2022/03/19 09:26:56;;;;;;;11.23;3.08;;;11.10;86.40;;;;;;5029853;28;20034;-87
2022/03/19 09:29:22;;;;;;;14.35;3.33;;;11.10;84.30;;;;;;5029828;28;20049;-87
2022/03/19 09:31:47;;;;;;;18.17;3.75;;;11.20;82.00;;;;;;5013658;28;20038;-87
2022/03/19 09:34:13;;;;;;;12.65;3.78;;;11.30;82.40;;;;;;5030357;28;20073;-87
2022/03/19 09:36:41;;;;;;;12.57;3.17;;;11.40;83.00;;;;;;5029109;28;20065;-87
2022/03/19 09:39:06;;;;;;;12.93;3.47;;;11.50;82.40;;;;;;5013657;28;20522;-87
2022/03/19 09:41:33;;;;;;;13.35;3.08;;;11.60;80.90;;;;;;5013465;28;20081;-87
2022/03/19 09:43:59;;;;;;;11.15;2.80;;;11.70;79.80;;;;;;5030260;28;20037;-87
2022/03/19 09:46:25;;;;;;;12.82;3.90;;;11.80;79.30;;;;;;5013641;28;20045;-88
2022/03/19 09:48:53;;;;;;;12.48;3.20;;;11.90;78.20;;;;;;5029160;28;20403;-87
2022/03/19 09:51:19;;;;;;;14.40;3.97;;;12.10;78.50;;;;;;5012649;28;20033;-87
2022/03/19 09:53:46;;;;;;;13.93;3.35;;;12.10;76.40;;;;;;5030071;28;20052;-87
2022/03/19 09:56:12;;;;;;;10.98;3.10;;;12.20;74.80;;;;;;5029944;28;20077;-87
2022/03/19 09:58:37;;;;;;;15.13;3.50;;;12.30;74.70;;;;;;5013608;28;20112;-88
2022/03/19 10:01:05;;;;;;;12.10;3.17;;;12.40;74.40;;;;;;5029702;28;20443;-88
2022/03/19 10:03:39;;;;;;;12.52;3.15;;;12.40;73.00;;;;;;5028824;28;20034;-88
2022/03/19 10:08:59;;;;;;;13.10;3.13;;;12.60;71.40;;;;;;5029816;28;20048;-87
2022/03/19 10:11:30;;;;;;;15.43;3.45;;;12.70;69.40;;;;;;5029810;28;20045;-87
2022/03/19 10:13:56;;;;;;;10.63;2.90;;;12.80;68.20;;;;;;5031764;28;20033;-87
2022/03/19 10:16:28;;;;;;;13.02;2.95;;;12.80;66.40;;;;;;5033549;28;20045;-87
2022/03/19 10:18:59;;;;;;;11.43;3.45;;;12.90;65.30;;;;;;5033909;28;20073;-87
2022/03/19 10:21:27;;;;;;;14.32;3.70;;;13.00;65.40;;;;;;5031025;28;20120;-87
2022/03/19 10:23:53;;;;;;;13.18;3.10;;;13.10;64.90;;;;;;5033581;28;20037;-87
2022/03/19 10:26:24;;;;;;;10.80;2.65;;;13.20;65.20;;;;;;5033091;28;20054;-87
2022/03/19 10:28:58;;;;;;;10.07;3.00;;;13.30;64.00;;;;;;5016724;28;20052;-86
2022/03/19 10:31:35;;;;;;;9.98;2.80;;;13.50;62.70;;;;;;5016361;28;20042;-87
2022/03/19 10:34:03;;;;;;;12.45;2.42;;;13.50;60.60;;;;;;5016987;28;20073;-87
2022/03/19 10:36:34;;;;;;;11.18;2.60;;;13.60;60.80;;;;;;5033158;28;20084;-87
2022/03/19 10:39:20;;;;;;;11.43;2.42;;;13.70;59.80;;;;;;5033380;28;20434;-87
2022/03/19 10:41:47;;;;;;;10.02;2.28;;;13.80;59.40;;;;;;5032725;28;20515;-87
2022/03/19 10:44:17;;;;;;;9.65;2.40;;;13.90;59.60;;;;;;5015661;28;20045;-87
2022/03/19 10:46:51;;;;;;;10.10;2.47;;;14.00;59.60;;;;;;5032784;28;20073;-88
2022/03/19 10:49:18;;;;;;;10.38;3.05;;;14.10;59.70;;;;;;5033260;28;20042;-87
2022/03/19 10:51:45;;;;;;;10.20;2.40;;;14.20;58.30;;;;;;5016048;28;20045;-87
2022/03/19 10:54:12;;;;;;;12.40;2.70;;;14.40;58.10;;;;;;5016382;28;20076;-87
2022/03/19 10:56:38;;;;;;;9.90;3.53;;;14.50;57.60;;;;;;5032197;28;20041;-88
2022/03/19 10:59:03;;;;;;;11.18;4.03;;;14.60;57.80;;;;;;5016607;28;20442;-87
2022/03/19 11:01:35;;;;;;;9.05;3.10;;;14.70;56.90;;;;;;5032445;28;20494;-87
2022/03/19 11:04:02;;;;;;;9.40;2.50;;;14.80;55.50;;;;;;5031785;28;20457;-87
2022/03/19 11:06:32;;;;;;;10.02;3.10;;;14.80;54.90;;;;;;5041494;28;20388;-87
2022/03/19 11:09:04;;;;;;;7.97;2.40;;;14.90;54.70;;;;;;5019124;28;20029;-88
2022/03/19 11:12:01;;;;;;;9.68;2.47;;;15.00;52.40;;;;;;5033746;28;20033;-88
2022/03/19 11:14:28;;;;;;;8.40;2.13;;;15.00;51.90;;;;;;5033863;28;20045;-88
2022/03/19 11:17:28;;;;;;;8.38;2.10;;;15.00;52.00;;;;;;5033164;28;20091;-88
2022/03/19 11:20:02;;;;;;;8.27;2.00;;;15.20;51.10;;;;;;5016380;28;20037;-88
2022/03/19 11:22:43;;;;;;;8.07;2.20;;;15.30;50.40;;;;;;5012837;28;20092;-88
2022/03/19 11:25:20;;;;;;;9.20;2.53;;;15.40;50.50;;;;;;5021803;28;20034;-88
2022/03/19 11:27:49;;;;;;;9.57;2.60;;;15.50;50.20;;;;;;5015518;28;20128;-88
2022/03/19 11:30:20;;;;;;;8.40;2.58;;;15.60;50.60;;;;;;5031028;28;20104;-88
2022/03/19 11:33:01;;;;;;;8.90;2.03;;;15.80;50.70;;;;;;5015544;28;20038;-88
2022/03/19 11:35:28;;;;;;;9.95;2.33;;;16.00;49.50;;;;;;5033461;28;20069;-88
2022/03/19 11:38:04;;;;;;;8.98;2.22;;;16.20;49.40;;;;;;5031904;28;20041;-88
2022/03/19 11:40:35;;;;;;;12.15;2.47;;;16.40;48.90;;;;;;5031676;28;20077;-88
2022/03/19 11:43:04;;;;;;;7.85;2.13;;;16.50;49.30;;;;;;5031871;28;20406;-88
2022/03/19 11:45:56;;;;;;;8.65;2.10;;;16.60;49.10;;;;;;5032374;28;20045;-87
2022/03/19 11:48:59;;;;;;;7.25;1.70;;;16.60;48.00;;;;;;5031957;28;20457;-88
2022/03/19 11:51:24;;;;;;;7.75;1.70;;;16.70;47.10;;;;;;4974665;28;20042;-87
2022/03/19 11:53:57;;;;;;;7.10;1.48;;;16.70;46.40;;;;;;4959357;28;20415;-88
2022/03/19 11:56:47;;;;;;;4.72;1.20;;;16.70;44.30;;;;;;4959070;28;20046;-88
2022/03/19 11:59:16;;;;;;;7.78;2.00;;;16.80;43.20;;;;;;4974733;28;20104;-88
2022/03/19 12:01:49;;;;;;;7.40;1.52;;;16.80;43.40;;;;;;4958778;28;20478;-88
2022/03/19 12:04:16;;;;;;;5.40;1.38;;;16.90;42.60;;;;;;4974975;28;20042;-88
2022/03/19 12:06:53;;;;;;;8.93;2.22;;;17.00;43.20;;;;;;4974841;28;20220;-87
2022/03/19 12:09:38;;;;;;;8.27;2.20;;;17.10;45.20;;;;;;4958871;28;20049;-88
2022/03/19 12:12:15;;;;;;;6.70;2.08;;;17.20;44.90;;;;;;4958413;28;20050;-88
2022/03/19 12:14:43;;;;;;;8.85;2.58;;;17.20;44.80;;;;;;4958578;28;20049;-87
2022/03/19 12:17:27;;;;;;;9.40;2.30;;;17.20;44.90;;;;;;4974442;28;20043;-88
2022/03/19 12:19:55;;;;;;;6.68;1.85;;;17.30;44.40;;;;;;4957875;28;20058;-88
2022/03/19 12:22:28;;;;;;;10.25;3.53;;;17.50;43.70;;;;;;4974510;28;20034;-87
2022/03/19 12:25:16;;;;;;;8.05;2.10;;;17.60;43.80;;;;;;4973537;28;20469;-88
2022/03/19 12:27:49;;;;;;;7.85;2.03;;;17.80;43.90;;;;;;5031114;28;20042;-88
2022/03/19 12:30:15;;;;;;;8.15;1.52;;;17.80;41.90;;;;;;5030579;28;20076;-88
2022/03/19 12:32:55;;;;;;;9.15;2.00;;;17.90;42.30;;;;;;5030730;28;20084;-88
2022/03/19 12:35:39;;;;;;;6.75;1.40;;;18.10;42.00;;;;;;5027386;28;20067;-88
2022/03/19 12:38:05;;;;;;;8.77;2.95;;;18.10;40.70;;;;;;5028392;28;20120;-87
2022/03/19 12:43:17;;;;;;;6.03;1.48;;;18.30;39.90;;;;;;5030666;28;20490;-90
2022/03/19 12:45:46;;;;;;;6.47;1.50;;;18.40;40.40;;;;;;5030958;28;20042;-88
2022/03/19 12:48:18;;;;;;;6.35;1.70;;;18.60;40.00;;;;;;5013825;28;20045;-87
2022/03/19 12:50:56;;;;;;;6.67;1.60;;;18.60;38.30;;;;;;5029809;28;20038;-88
2022/03/19 12:53:35;;;;;;;5.53;1.70;;;18.60;38.10;;;;;;5013513;28;20046;-88
2022/03/19 12:56:25;;;;;;;6.30;1.60;;;18.80;38.60;;;;;;5027440;28;20069;-88
2022/03/19 12:58:53;;;;;;;6.68;1.65;;;18.80;38.40;;;;;;5029774;28;20091;-88
2022/03/19 13:01:21;;;;;;;6.30;1.50;;;18.80;38.70;;;;;;5027560;28;20055;-88
2022/03/19 13:03:47;;;;;;;6.88;1.65;;;19.00;38.40;;;;;;5029117;28;20073;-88
2022/03/19 13:06:16;;;;;;;6.22;1.60;;;19.10;38.50;;;;;;5029386;28;20064;-88